sensor_id;sensor_type;location;lat;lon;timestamp;P1;durP1;ratioP1;P2;durP2;ratioP2
26582;SDS011;14230;45.382;10.998;2023-03-13T00:03:43;19.70;;;7.40;;
26582;SDS011;14230;45.382;10.998;2023-03-13T00:06:13;11.50;;;7.32;;
26582;SDS011;14230;45.382;10.998;2023-03-13T00:08:40;13.35;;;7.57;;
26582;SDS011;14230;45.382;10.998;2023-03-13T00:11:11;14.32;;;7.72;;
26582;SDS011;14230;45.382;10.998;2023-03-13T00:13:40;17.65;;;8.02;;
26582;SDS011;14230;45.382;10.998;2023-03-13T00:16:09;14.15;;;6.72;;
26582;SDS011;14230;45.382;10.998;2023-03-13T00:18:46;21.65;;;7.43;;
26582;SDS011;14230;45.382;10.998;2023-03-13T00:21:15;13.32;;;8.45;;
26582;SDS011;14230;45.382;10.998;2023-03-13T00:23:44;14.65;;;8.43;;
26582;SDS011;14230;45.382;10.998;2023-03-13T00:26:13;24.25;;;7.65;;
26582;SDS011;14230;45.382;10.998;2023-03-13T00:28:43;13.63;;;7.38;;
26582;SDS011;14230;45.382;10.998;2023-03-13T00:31:16;11.48;;;6.97;;
26582;SDS011;14230;45.382;10.998;2023-03-13T00:33:49;10.10;;;7.68;;
26582;SDS011;14230;45.382;10.998;2023-03-13T00:36:20;14.15;;;6.95;;
26582;SDS011;14230;45.382;10.998;2023-03-13T00:38:49;17.85;;;7.93;;
26582;SDS011;14230;45.382;10.998;2023-03-13T00:41:19;15.98;;;8.00;;
26582;SDS011;14230;45.382;10.998;2023-03-13T00:43:48;14.40;;;7.30;;
26582;SDS011;14230;45.382;10.998;2023-03-13T00:46:17;14.40;;;7.20;;
26582;SDS011;14230;45.382;10.998;2023-03-13T00:48:47;13.25;;;7.63;;
26582;SDS011;14230;45.382;10.998;2023-03-13T00:51:16;14.98;;;8.27;;
26582;SDS011;14230;45.382;10.998;2023-03-13T00:53:47;14.57;;;7.70;;
26582;SDS011;14230;45.382;10.998;2023-03-13T00:56:15;14.77;;;8.57;;
26582;SDS011;14230;45.382;10.998;2023-03-13T00:58:45;14.63;;;8.57;;
26582;SDS011;14230;45.382;10.998;2023-03-13T01:01:15;17.60;;;8.27;;
26582;SDS011;14230;45.382;10.998;2023-03-13T01:03:54;13.45;;;7.15;;
26582;SDS011;14230;45.382;10.998;2023-03-13T01:06:24;13.00;;;8.00;;
26582;SDS011;14230;45.382;10.998;2023-03-13T01:08:57;15.10;;;8.02;;
26582;SDS011;14230;45.382;10.998;2023-03-13T01:11:26;12.77;;;7.03;;
26582;SDS011;14230;45.382;10.998;2023-03-13T01:13:57;15.35;;;7.70;;
26582;SDS011;14230;45.382;10.998;2023-03-13T01:16:28;12.55;;;7.15;;
26582;SDS011;14230;45.382;10.998;2023-03-13T01:19:01;13.52;;;6.90;;
26582;SDS011;14230;45.382;10.998;2023-03-13T01:21:31;11.73;;;7.32;;
26582;SDS011;14230;45.382;10.998;2023-03-13T01:23:58;14.23;;;7.80;;
26582;SDS011;14230;45.382;10.998;2023-03-13T01:26:26;13.20;;;7.68;;
26582;SDS011;14230;45.382;10.998;2023-03-13T01:28:54;16.67;;;8.23;;
26582;SDS011;14230;45.382;10.998;2023-03-13T01:31:23;13.30;;;7.53;;
26582;SDS011;14230;45.382;10.998;2023-03-13T01:33:54;12.82;;;7.40;;
26582;SDS011;14230;45.382;10.998;2023-03-13T01:36:26;14.80;;;8.18;;
26582;SDS011;14230;45.382;10.998;2023-03-13T01:38:55;14.10;;;7.90;;
26582;SDS011;14230;45.382;10.998;2023-03-13T01:41:25;15.32;;;8.93;;
26582;SDS011;14230;45.382;10.998;2023-03-13T01:43:54;13.05;;;7.97;;
26582;SDS011;14230;45.382;10.998;2023-03-13T01:46:25;12.98;;;7.75;;
26582;SDS011;14230;45.382;10.998;2023-03-13T01:49:18;15.15;;;7.57;;
26582;SDS011;14230;45.382;10.998;2023-03-13T01:52:03;13.38;;;7.90;;
26582;SDS011;14230;45.382;10.998;2023-03-13T01:54:39;15.50;;;7.97;;
26582;SDS011;14230;45.382;10.998;2023-03-13T01:57:26;14.73;;;7.72;;
26582;SDS011;14230;45.382;10.998;2023-03-13T02:02:40;13.07;;;7.93;;
26582;SDS011;14230;45.382;10.998;2023-03-13T02:05:10;13.98;;;8.35;;
26582;SDS011;14230;45.382;10.998;2023-03-13T02:07:44;15.60;;;7.40;;
26582;SDS011;14230;45.382;10.998;2023-03-13T02:10:17;16.02;;;7.60;;
26582;SDS011;14230;45.382;10.998;2023-03-13T02:12:45;18.50;;;9.55;;
26582;SDS011;14230;45.382;10.998;2023-03-13T02:15:19;11.93;;;8.10;;
26582;SDS011;14230;45.382;10.998;2023-03-13T02:17:48;16.10;;;8.85;;
26582;SDS011;14230;45.382;10.998;2023-03-13T02:20:17;10.27;;;6.85;;
26582;SDS011;14230;45.382;10.998;2023-03-13T02:28:22;14.75;;;8.15;;
26582;SDS011;14230;45.382;10.998;2023-03-13T02:31:00;12.93;;;6.93;;
26582;SDS011;14230;45.382;10.998;2023-03-13T02:33:30;13.32;;;7.57;;
26582;SDS011;14230;45.382;10.998;2023-03-13T02:36:01;10.73;;;7.82;;
26582;SDS011;14230;45.382;10.998;2023-03-13T02:38:30;19.02;;;7.75;;
26582;SDS011;14230;45.382;10.998;2023-03-13T02:41:16;13.43;;;7.97;;
26582;SDS011;14230;45.382;10.998;2023-03-13T02:43:45;13.48;;;7.45;;
26582;SDS011;14230;45.382;10.998;2023-03-13T02:46:14;14.20;;;7.72;;
26582;SDS011;14230;45.382;10.998;2023-03-13T02:48:47;12.73;;;7.93;;
26582;SDS011;14230;45.382;10.998;2023-03-13T02:51:29;13.90;;;8.38;;
26582;SDS011;14230;45.382;10.998;2023-03-13T02:54:04;11.63;;;8.40;;
26582;SDS011;14230;45.382;10.998;2023-03-13T02:56:36;14.93;;;7.53;;
26582;SDS011;14230;45.382;10.998;2023-03-13T02:59:07;11.07;;;7.60;;
26582;SDS011;14230;45.382;10.998;2023-03-13T03:01:38;12.45;;;8.15;;
26582;SDS011;14230;45.382;10.998;2023-03-13T03:04:06;15.25;;;8.25;;
26582;SDS011;14230;45.382;10.998;2023-03-13T03:06:33;14.43;;;8.27;;
26582;SDS011;14230;45.382;10.998;2023-03-13T03:09:02;16.73;;;8.18;;
26582;SDS011;14230;45.382;10.998;2023-03-13T03:11:33;12.95;;;8.07;;
26582;SDS011;14230;45.382;10.998;2023-03-13T03:14:05;10.48;;;7.32;;
26582;SDS011;14230;45.382;10.998;2023-03-13T03:16:38;14.57;;;8.25;;
26582;SDS011;14230;45.382;10.998;2023-03-13T03:19:06;14.55;;;8.93;;
26582;SDS011;14230;45.382;10.998;2023-03-13T03:21:33;13.90;;;7.97;;
26582;SDS011;14230;45.382;10.998;2023-03-13T03:24:01;17.95;;;8.02;;
26582;SDS011;14230;45.382;10.998;2023-03-13T03:26:29;13.30;;;8.18;;
26582;SDS011;14230;45.382;10.998;2023-03-13T03:28:57;16.08;;;7.63;;
26582;SDS011;14230;45.382;10.998;2023-03-13T03:31:25;15.65;;;8.73;;
26582;SDS011;14230;45.382;10.998;2023-03-13T03:33:55;15.23;;;7.50;;
26582;SDS011;14230;45.382;10.998;2023-03-13T03:36:23;17.00;;;7.60;;
26582;SDS011;14230;45.382;10.998;2023-03-13T03:38:51;14.70;;;8.38;;
26582;SDS011;14230;45.382;10.998;2023-03-13T03:41:23;11.77;;;7.68;;
26582;SDS011;14230;45.382;10.998;2023-03-13T03:43:51;11.23;;;7.57;;
26582;SDS011;14230;45.382;10.998;2023-03-13T03:46:25;15.63;;;7.88;;
26582;SDS011;14230;45.382;10.998;2023-03-13T03:48:55;13.90;;;8.65;;
26582;SDS011;14230;45.382;10.998;2023-03-13T03:51:24;12.60;;;7.93;;
26582;SDS011;14230;45.382;10.998;2023-03-13T03:53:54;15.85;;;8.10;;
26582;SDS011;14230;45.382;10.998;2023-03-13T03:56:23;14.13;;;8.25;;
26582;SDS011;14230;45.382;10.998;2023-03-13T03:58:54;15.07;;;7.60;;
26582;SDS011;14230;45.382;10.998;2023-03-13T04:01:30;15.95;;;8.82;;
26582;SDS011;14230;45.382;10.998;2023-03-13T04:03:58;19.40;;;8.15;;
26582;SDS011;14230;45.382;10.998;2023-03-13T04:06:26;17.08;;;8.70;;
26582;SDS011;14230;45.382;10.998;2023-03-13T04:08:53;21.33;;;8.05;;
26582;SDS011;14230;45.382;10.998;2023-03-13T04:11:23;13.20;;;7.55;;
26582;SDS011;14230;45.382;10.998;2023-03-13T04:13:53;16.20;;;8.02;;
26582;SDS011;14230;45.382;10.998;2023-03-13T04:16:21;12.13;;;7.82;;
26582;SDS011;14230;45.382;10.998;2023-03-13T04:18:50;21.45;;;8.60;;
26582;SDS011;14230;45.382;10.998;2023-03-13T04:21:17;15.98;;;7.70;;
26582;SDS011;14230;45.382;10.998;2023-03-13T04:23:59;12.33;;;7.70;;
26582;SDS011;14230;45.382;10.998;2023-03-13T04:26:26;15.23;;;7.93;;
26582;SDS011;14230;45.382;10.998;2023-03-13T04:28:56;19.08;;;8.20;;
26582;SDS011;14230;45.382;10.998;2023-03-13T04:31:47;15.65;;;8.07;;
26582;SDS011;14230;45.382;10.998;2023-03-13T04:34:41;15.00;;;6.50;;
26582;SDS011;14230;45.382;10.998;2023-03-13T04:37:36;12.55;;;6.45;;
26582;SDS011;14230;45.382;10.998;2023-03-13T04:40:35;16.52;;;7.20;;
26582;SDS011;14230;45.382;10.998;2023-03-13T04:43:32;13.63;;;6.90;;
26582;SDS011;14230;45.382;10.998;2023-03-13T04:46:12;13.55;;;8.13;;
26582;SDS011;14230;45.382;10.998;2023-03-13T04:49:03;17.10;;;7.13;;
26582;SDS011;14230;45.382;10.998;2023-03-13T04:51:54;10.93;;;6.85;;
26582;SDS011;14230;45.382;10.998;2023-03-13T04:54:43;15.30;;;7.38;;
26582;SDS011;14230;45.382;10.998;2023-03-13T04:57:27;10.70;;;6.68;;
26582;SDS011;14230;45.382;10.998;2023-03-13T05:00:04;15.80;;;7.10;;
26582;SDS011;14230;45.382;10.998;2023-03-13T05:02:52;14.30;;;6.65;;
26582;SDS011;14230;45.382;10.998;2023-03-13T05:05:48;13.35;;;6.88;;
26582;SDS011;14230;45.382;10.998;2023-03-13T05:08:35;10.73;;;6.43;;
26582;SDS011;14230;45.382;10.998;2023-03-13T05:14:03;11.77;;;6.22;;
26582;SDS011;14230;45.382;10.998;2023-03-13T05:16:57;15.05;;;6.10;;
26582;SDS011;14230;45.382;10.998;2023-03-13T05:19:47;9.75;;;6.10;;
26582;SDS011;14230;45.382;10.998;2023-03-13T05:22:38;14.40;;;6.53;;
26582;SDS011;14230;45.382;10.998;2023-03-13T05:25:33;15.48;;;7.85;;
26582;SDS011;14230;45.382;10.998;2023-03-13T05:28:13;14.10;;;6.82;;
26582;SDS011;14230;45.382;10.998;2023-03-13T05:31:07;12.70;;;6.32;;
26582;SDS011;14230;45.382;10.998;2023-03-13T05:33:51;13.10;;;6.65;;
26582;SDS011;14230;45.382;10.998;2023-03-13T05:36:28;20.15;;;7.25;;
26582;SDS011;14230;45.382;10.998;2023-03-13T05:39:19;18.95;;;6.75;;
26582;SDS011;14230;45.382;10.998;2023-03-13T05:41:46;16.77;;;7.15;;
26582;SDS011;14230;45.382;10.998;2023-03-13T05:44:13;16.48;;;6.63;;
26582;SDS011;14230;45.382;10.998;2023-03-13T05:46:53;11.63;;;6.85;;
26582;SDS011;14230;45.382;10.998;2023-03-13T05:49:47;13.13;;;7.38;;
26582;SDS011;14230;45.382;10.998;2023-03-13T05:52:14;12.05;;;6.32;;
26582;SDS011;14230;45.382;10.998;2023-03-13T05:54:42;16.15;;;7.32;;
26582;SDS011;14230;45.382;10.998;2023-03-13T05:57:15;11.38;;;7.18;;
26582;SDS011;14230;45.382;10.998;2023-03-13T06:00:00;17.05;;;7.55;;
26582;SDS011;14230;45.382;10.998;2023-03-13T06:02:53;16.63;;;7.78;;
26582;SDS011;14230;45.382;10.998;2023-03-13T06:05:30;17.75;;;7.18;;
26582;SDS011;14230;45.382;10.998;2023-03-13T06:08:00;13.98;;;7.18;;
26582;SDS011;14230;45.382;10.998;2023-03-13T06:10:30;14.52;;;7.25;;
26582;SDS011;14230;45.382;10.998;2023-03-13T06:12:59;24.17;;;8.60;;
26582;SDS011;14230;45.382;10.998;2023-03-13T06:15:52;14.80;;;8.25;;
26582;SDS011;14230;45.382;10.998;2023-03-13T06:18:43;16.20;;;9.43;;
26582;SDS011;14230;45.382;10.998;2023-03-13T06:21:12;23.90;;;12.63;;
26582;SDS011;14230;45.382;10.998;2023-03-13T06:23:41;24.90;;;12.57;;
26582;SDS011;14230;45.382;10.998;2023-03-13T06:26:10;13.25;;;7.90;;
26582;SDS011;14230;45.382;10.998;2023-03-13T06:28:41;12.07;;;7.50;;
26582;SDS011;14230;45.382;10.998;2023-03-13T06:31:08;18.58;;;7.65;;
26582;SDS011;14230;45.382;10.998;2023-03-13T06:33:36;16.48;;;8.02;;
26582;SDS011;14230;45.382;10.998;2023-03-13T06:36:04;16.08;;;7.47;;
26582;SDS011;14230;45.382;10.998;2023-03-13T06:38:32;20.60;;;8.18;;
26582;SDS011;14230;45.382;10.998;2023-03-13T06:40:59;11.32;;;6.95;;
26582;SDS011;14230;45.382;10.998;2023-03-13T06:43:27;12.38;;;7.80;;
26582;SDS011;14230;45.382;10.998;2023-03-13T06:45:55;16.42;;;7.72;;
26582;SDS011;14230;45.382;10.998;2023-03-13T06:48:22;14.65;;;7.65;;
26582;SDS011;14230;45.382;10.998;2023-03-13T06:50:50;14.30;;;7.97;;
26582;SDS011;14230;45.382;10.998;2023-03-13T06:53:18;14.13;;;7.78;;
26582;SDS011;14230;45.382;10.998;2023-03-13T06:55:46;12.32;;;7.22;;
26582;SDS011;14230;45.382;10.998;2023-03-13T06:58:15;18.15;;;8.85;;
26582;SDS011;14230;45.382;10.998;2023-03-13T07:00:58;21.50;;;7.85;;
26582;SDS011;14230;45.382;10.998;2023-03-13T07:03:31;18.33;;;8.23;;
26582;SDS011;14230;45.382;10.998;2023-03-13T07:05:59;29.13;;;9.07;;
26582;SDS011;14230;45.382;10.998;2023-03-13T07:08:26;15.10;;;8.02;;
26582;SDS011;14230;45.382;10.998;2023-03-13T07:10:58;14.60;;;8.52;;
26582;SDS011;14230;45.382;10.998;2023-03-13T07:13:27;17.63;;;8.40;;
26582;SDS011;14230;45.382;10.998;2023-03-13T07:15:55;17.25;;;7.93;;
26582;SDS011;14230;45.382;10.998;2023-03-13T07:18:26;28.08;;;9.52;;
26582;SDS011;14230;45.382;10.998;2023-03-13T07:20:54;21.27;;;8.07;;
26582;SDS011;14230;45.382;10.998;2023-03-13T07:23:23;21.75;;;8.98;;
26582;SDS011;14230;45.382;10.998;2023-03-13T07:25:53;16.05;;;8.55;;
26582;SDS011;14230;45.382;10.998;2023-03-13T07:28:22;19.90;;;7.70;;
26582;SDS011;14230;45.382;10.998;2023-03-13T07:30:49;20.95;;;8.88;;
26582;SDS011;14230;45.382;10.998;2023-03-13T07:33:17;13.32;;;8.02;;
26582;SDS011;14230;45.382;10.998;2023-03-13T07:35:49;15.57;;;9.30;;
26582;SDS011;14230;45.382;10.998;2023-03-13T07:38:18;17.88;;;9.32;;
26582;SDS011;14230;45.382;10.998;2023-03-13T07:40:49;16.90;;;9.63;;
26582;SDS011;14230;45.382;10.998;2023-03-13T07:43:18;20.75;;;9.32;;
26582;SDS011;14230;45.382;10.998;2023-03-13T07:46:05;18.02;;;9.05;;
26582;SDS011;14230;45.382;10.998;2023-03-13T07:48:36;17.13;;;9.07;;
26582;SDS011;14230;45.382;10.998;2023-03-13T07:51:05;15.63;;;8.98;;
26582;SDS011;14230;45.382;10.998;2023-03-13T07:53:36;14.25;;;9.60;;
26582;SDS011;14230;45.382;10.998;2023-03-13T07:56:09;17.98;;;9.85;;
26582;SDS011;14230;45.382;10.998;2023-03-13T07:58:39;22.08;;;9.50;;
26582;SDS011;14230;45.382;10.998;2023-03-13T08:01:11;14.27;;;9.35;;
26582;SDS011;14230;45.382;10.998;2023-03-13T08:03:40;15.93;;;10.35;;
26582;SDS011;14230;45.382;10.998;2023-03-13T08:06:09;19.20;;;10.68;;
26582;SDS011;14230;45.382;10.998;2023-03-13T08:08:38;22.50;;;10.15;;
26582;SDS011;14230;45.382;10.998;2023-03-13T08:11:07;21.60;;;10.73;;
26582;SDS011;14230;45.382;10.998;2023-03-13T08:13:37;20.90;;;10.35;;
26582;SDS011;14230;45.382;10.998;2023-03-13T08:18:39;15.35;;;10.07;;
26582;SDS011;14230;45.382;10.998;2023-03-13T08:21:18;20.42;;;10.32;;
26582;SDS011;14230;45.382;10.998;2023-03-13T08:23:47;20.40;;;9.55;;
26582;SDS011;14230;45.382;10.998;2023-03-13T08:26:21;15.65;;;10.05;;
26582;SDS011;14230;45.382;10.998;2023-03-13T08:28:57;23.83;;;10.25;;
26582;SDS011;14230;45.382;10.998;2023-03-13T08:31:41;21.58;;;11.50;;
26582;SDS011;14230;45.382;10.998;2023-03-13T08:34:10;20.05;;;10.80;;
26582;SDS011;14230;45.382;10.998;2023-03-13T08:36:39;17.17;;;10.18;;
26582;SDS011;14230;45.382;10.998;2023-03-13T08:39:11;17.45;;;9.68;;
26582;SDS011;14230;45.382;10.998;2023-03-13T08:41:43;14.48;;;9.77;;
26582;SDS011;14230;45.382;10.998;2023-03-13T08:44:14;19.63;;;9.90;;
26582;SDS011;14230;45.382;10.998;2023-03-13T08:46:44;26.63;;;10.30;;
26582;SDS011;14230;45.382;10.998;2023-03-13T08:49:12;24.33;;;11.48;;
26582;SDS011;14230;45.382;10.998;2023-03-13T08:51:40;20.90;;;11.48;;
26582;SDS011;14230;45.382;10.998;2023-03-13T08:54:08;23.80;;;9.35;;
26582;SDS011;14230;45.382;10.998;2023-03-13T08:56:36;14.75;;;9.18;;
26582;SDS011;14230;45.382;10.998;2023-03-13T08:59:04;18.08;;;8.93;;
26582;SDS011;14230;45.382;10.998;2023-03-13T09:01:33;17.85;;;10.20;;
26582;SDS011;14230;45.382;10.998;2023-03-13T09:04:03;15.45;;;9.27;;
26582;SDS011;14230;45.382;10.998;2023-03-13T09:06:35;21.90;;;10.75;;
26582;SDS011;14230;45.382;10.998;2023-03-13T09:09:04;26.13;;;9.63;;
26582;SDS011;14230;45.382;10.998;2023-03-13T09:11:34;18.40;;;9.68;;
26582;SDS011;14230;45.382;10.998;2023-03-13T09:14:03;35.72;;;11.25;;
26582;SDS011;14230;45.382;10.998;2023-03-13T09:16:32;27.23;;;9.82;;
26582;SDS011;14230;45.382;10.998;2023-03-13T09:19:01;19.38;;;10.30;;
26582;SDS011;14230;45.382;10.998;2023-03-13T09:21:30;18.05;;;10.23;;
26582;SDS011;14230;45.382;10.998;2023-03-13T09:23:59;18.08;;;10.73;;
26582;SDS011;14230;45.382;10.998;2023-03-13T09:26:27;23.75;;;13.13;;
26582;SDS011;14230;45.382;10.998;2023-03-13T09:28:55;24.15;;;13.60;;
26582;SDS011;14230;45.382;10.998;2023-03-13T09:31:25;21.35;;;12.88;;
26582;SDS011;14230;45.382;10.998;2023-03-13T09:33:56;29.50;;;16.02;;
26582;SDS011;14230;45.382;10.998;2023-03-13T09:36:25;26.20;;;17.65;;
26582;SDS011;14230;45.382;10.998;2023-03-13T09:38:54;26.58;;;16.90;;
26582;SDS011;14230;45.382;10.998;2023-03-13T09:46:57;24.15;;;11.65;;
26582;SDS011;14230;45.382;10.998;2023-03-13T09:54:46;17.00;;;9.38;;
26582;SDS011;14230;45.382;10.998;2023-03-13T09:57:37;17.48;;;9.65;;
26582;SDS011;14230;45.382;10.998;2023-03-13T10:00:37;14.35;;;9.70;;
26582;SDS011;14230;45.382;10.998;2023-03-13T10:05:52;15.88;;;8.60;;
26582;SDS011;14230;45.382;10.998;2023-03-13T10:08:26;16.25;;;8.73;;
26582;SDS011;14230;45.382;10.998;2023-03-13T10:10:59;13.20;;;8.33;;
26582;SDS011;14230;45.382;10.998;2023-03-13T10:13:48;13.60;;;9.10;;
26582;SDS011;14230;45.382;10.998;2023-03-13T10:16:37;16.02;;;8.68;;
26582;SDS011;14230;45.382;10.998;2023-03-13T10:19:15;18.35;;;9.88;;
26582;SDS011;14230;45.382;10.998;2023-03-13T10:21:46;17.17;;;9.30;;
26582;SDS011;14230;45.382;10.998;2023-03-13T10:24:18;19.00;;;9.98;;
26582;SDS011;14230;45.382;10.998;2023-03-13T10:27:13;15.63;;;8.07;;
26582;SDS011;14230;45.382;10.998;2023-03-13T10:29:41;32.55;;;9.63;;
26582;SDS011;14230;45.382;10.998;2023-03-13T10:32:11;20.45;;;9.07;;
26582;SDS011;14230;45.382;10.998;2023-03-13T10:34:56;18.60;;;8.40;;
26582;SDS011;14230;45.382;10.998;2023-03-13T10:37:27;14.85;;;9.27;;
26582;SDS011;14230;45.382;10.998;2023-03-13T10:40:20;22.27;;;8.43;;
26582;SDS011;14230;45.382;10.998;2023-03-13T10:42:51;12.73;;;8.57;;
26582;SDS011;14230;45.382;10.998;2023-03-13T10:45:25;13.15;;;8.85;;
26582;SDS011;14230;45.382;10.998;2023-03-13T10:47:59;20.23;;;9.45;;
26582;SDS011;14230;45.382;10.998;2023-03-13T10:50:31;19.23;;;10.30;;
26582;SDS011;14230;45.382;10.998;2023-03-13T10:53:06;14.32;;;9.18;;
26582;SDS011;14230;45.382;10.998;2023-03-13T10:55:46;18.77;;;9.63;;
26582;SDS011;14230;45.382;10.998;2023-03-13T10:58:34;15.45;;;8.90;;
26582;SDS011;14230;45.382;10.998;2023-03-13T11:01:16;19.35;;;9.23;;
26582;SDS011;14230;45.382;10.998;2023-03-13T11:03:44;19.23;;;9.90;;
26582;SDS011;14230;45.382;10.998;2023-03-13T11:09:12;16.83;;;9.07;;
26582;SDS011;14230;45.382;10.998;2023-03-13T11:12:03;13.07;;;8.05;;
26582;SDS011;14230;45.382;10.998;2023-03-13T11:14:43;13.13;;;8.57;;
26582;SDS011;14230;45.382;10.998;2023-03-13T11:17:20;17.25;;;9.65;;
26582;SDS011;14230;45.382;10.998;2023-03-13T11:30:55;11.20;;;6.13;;
26582;SDS011;14230;45.382;10.998;2023-03-13T11:33:46;11.23;;;6.70;;
26582;SDS011;14230;45.382;10.998;2023-03-13T11:36:52;16.77;;;7.72;;
26582;SDS011;14230;45.382;10.998;2023-03-13T11:50:54;14.60;;;5.78;;
26582;SDS011;14230;45.382;10.998;2023-03-13T11:56:03;9.90;;;4.50;;
26582;SDS011;14230;45.382;10.998;2023-03-13T11:59:20;11.57;;;4.85;;
26582;SDS011;14230;45.382;10.998;2023-03-13T12:01:39;12.73;;;5.65;;
26582;SDS011;14230;45.382;10.998;2023-03-13T12:06:56;12.37;;;5.00;;
26582;SDS011;14230;45.382;10.998;2023-03-13T12:09:36;6.40;;;4.75;;
26582;SDS011;14230;45.382;10.998;2023-03-13T12:12:26;12.57;;;3.72;;
26582;SDS011;14230;45.382;10.998;2023-03-13T12:14:58;22.55;;;4.93;;
26582;SDS011;14230;45.382;10.998;2023-03-13T12:17:39;8.70;;;4.10;;
26582;SDS011;14230;45.382;10.998;2023-03-13T12:22:53;6.35;;;4.15;;
26582;SDS011;14230;45.382;10.998;2023-03-13T12:25:36;6.25;;;3.85;;
26582;SDS011;14230;45.382;10.998;2023-03-13T12:28:22;6.28;;;4.20;;
26582;SDS011;14230;45.382;10.998;2023-03-13T12:34:03;13.32;;;4.50;;
26582;SDS011;14230;45.382;10.998;2023-03-13T12:36:43;16.95;;;4.68;;
26582;SDS011;14230;45.382;10.998;2023-03-13T12:39:36;8.57;;;5.30;;
26582;SDS011;14230;45.382;10.998;2023-03-13T12:42:18;9.27;;;5.00;;
26582;SDS011;14230;45.382;10.998;2023-03-13T12:44:49;7.65;;;4.63;;
26582;SDS011;14230;45.382;10.998;2023-03-13T12:47:20;7.05;;;4.63;;
26582;SDS011;14230;45.382;10.998;2023-03-13T13:00:49;12.32;;;5.20;;
26582;SDS011;14230;45.382;10.998;2023-03-13T13:05:58;9.70;;;4.53;;
26582;SDS011;14230;45.382;10.998;2023-03-13T13:08:48;10.23;;;4.70;;
26582;SDS011;14230;45.382;10.998;2023-03-13T13:16:43;9.18;;;5.00;;
26582;SDS011;14230;45.382;10.998;2023-03-13T13:24:59;12.68;;;5.70;;
26582;SDS011;14230;45.382;10.998;2023-03-13T13:29:58;8.65;;;5.03;;
26582;SDS011;14230;45.382;10.998;2023-03-13T13:32:28;17.17;;;6.03;;
26582;SDS011;14230;45.382;10.998;2023-03-13T13:35:02;11.07;;;5.47;;
26582;SDS011;14230;45.382;10.998;2023-03-13T13:37:32;9.88;;;6.32;;
26582;SDS011;14230;45.382;10.998;2023-03-13T13:40:16;9.10;;;5.53;;
26582;SDS011;14230;45.382;10.998;2023-03-13T13:42:52;10.43;;;5.57;;
26582;SDS011;14230;45.382;10.998;2023-03-13T13:45:22;13.35;;;5.65;;
26582;SDS011;14230;45.382;10.998;2023-03-13T14:02:35;12.30;;;5.68;;
26582;SDS011;14230;45.382;10.998;2023-03-13T14:05:30;9.32;;;5.25;;
26582;SDS011;14230;45.382;10.998;2023-03-13T14:08:13;11.95;;;5.70;;
26582;SDS011;14230;45.382;10.998;2023-03-13T14:10:50;7.20;;;5.30;;
26582;SDS011;14230;45.382;10.998;2023-03-13T14:13:29;12.90;;;5.78;;
26582;SDS011;14230;45.382;10.998;2023-03-13T14:15:57;14.52;;;6.45;;
26582;SDS011;14230;45.382;10.998;2023-03-13T14:18:51;8.70;;;5.05;;
26582;SDS011;14230;45.382;10.998;2023-03-13T14:21:22;10.05;;;5.53;;
26582;SDS011;14230;45.382;10.998;2023-03-13T14:23:51;13.35;;;5.97;;
26582;SDS011;14230;45.382;10.998;2023-03-13T14:26:20;9.75;;;5.80;;
26582;SDS011;14230;45.382;10.998;2023-03-13T14:28:59;9.55;;;5.95;;
26582;SDS011;14230;45.382;10.998;2023-03-13T14:31:35;8.88;;;5.22;;
26582;SDS011;14230;45.382;10.998;2023-03-13T14:34:06;10.60;;;6.32;;
26582;SDS011;14230;45.382;10.998;2023-03-13T14:36:45;14.07;;;6.10;;
26582;SDS011;14230;45.382;10.998;2023-03-13T14:39:36;9.35;;;6.07;;
26582;SDS011;14230;45.382;10.998;2023-03-13T14:42:11;9.80;;;5.68;;
26582;SDS011;14230;45.382;10.998;2023-03-13T14:44:40;9.90;;;5.57;;
26582;SDS011;14230;45.382;10.998;2023-03-13T14:47:21;10.40;;;5.65;;
26582;SDS011;14230;45.382;10.998;2023-03-13T14:49:54;9.98;;;6.00;;
26582;SDS011;14230;45.382;10.998;2023-03-13T14:52:36;8.40;;;5.80;;
26582;SDS011;14230;45.382;10.998;2023-03-13T14:55:11;9.02;;;5.75;;
26582;SDS011;14230;45.382;10.998;2023-03-13T14:57:54;9.98;;;5.80;;
26582;SDS011;14230;45.382;10.998;2023-03-13T15:03:10;19.15;;;10.95;;
26582;SDS011;14230;45.382;10.998;2023-03-13T15:08:36;12.77;;;6.03;;
26582;SDS011;14230;45.382;10.998;2023-03-13T15:11:26;11.32;;;6.05;;
26582;SDS011;14230;45.382;10.998;2023-03-13T15:13:59;11.13;;;5.85;;
26582;SDS011;14230;45.382;10.998;2023-03-13T15:16:27;15.48;;;6.32;;
26582;SDS011;14230;45.382;10.998;2023-03-13T15:18:56;13.85;;;6.38;;
26582;SDS011;14230;45.382;10.998;2023-03-13T15:21:24;15.88;;;7.30;;
26582;SDS011;14230;45.382;10.998;2023-03-13T15:24:09;8.98;;;6.85;;
26582;SDS011;14230;45.382;10.998;2023-03-13T15:26:39;11.73;;;6.50;;
26582;SDS011;14230;45.382;10.998;2023-03-13T15:29:08;9.63;;;6.13;;
26582;SDS011;14230;45.382;10.998;2023-03-13T15:31:36;12.57;;;6.28;;
26582;SDS011;14230;45.382;10.998;2023-03-13T15:34:05;10.65;;;7.90;;
26582;SDS011;14230;45.382;10.998;2023-03-13T15:36:38;10.88;;;6.45;;
26582;SDS011;14230;45.382;10.998;2023-03-13T15:39:16;11.40;;;5.78;;
26582;SDS011;14230;45.382;10.998;2023-03-13T15:41:49;8.77;;;5.80;;
26582;SDS011;14230;45.382;10.998;2023-03-13T15:44:16;12.02;;;5.97;;
26582;SDS011;14230;45.382;10.998;2023-03-13T15:46:44;14.43;;;6.55;;
26582;SDS011;14230;45.382;10.998;2023-03-13T15:49:13;14.85;;;6.22;;
26582;SDS011;14230;45.382;10.998;2023-03-13T15:51:41;7.25;;;5.20;;
26582;SDS011;14230;45.382;10.998;2023-03-13T15:54:08;11.93;;;5.95;;
26582;SDS011;14230;45.382;10.998;2023-03-13T15:56:36;12.88;;;6.25;;
26582;SDS011;14230;45.382;10.998;2023-03-13T15:59:10;8.35;;;5.57;;
26582;SDS011;14230;45.382;10.998;2023-03-13T16:01:39;12.23;;;6.43;;
26582;SDS011;14230;45.382;10.998;2023-03-13T16:04:08;15.90;;;5.82;;
26582;SDS011;14230;45.382;10.998;2023-03-13T16:06:36;12.60;;;5.70;;
26582;SDS011;14230;45.382;10.998;2023-03-13T16:09:04;15.93;;;7.85;;
26582;SDS011;14230;45.382;10.998;2023-03-13T16:11:32;11.02;;;6.15;;
26582;SDS011;14230;45.382;10.998;2023-03-13T16:14:00;11.00;;;6.40;;
26582;SDS011;14230;45.382;10.998;2023-03-13T16:16:29;12.57;;;6.13;;
26582;SDS011;14230;45.382;10.998;2023-03-13T16:19:08;21.30;;;7.55;;
26582;SDS011;14230;45.382;10.998;2023-03-13T16:21:36;12.10;;;7.03;;
26582;SDS011;14230;45.382;10.998;2023-03-13T16:24:06;9.43;;;6.63;;
26582;SDS011;14230;45.382;10.998;2023-03-13T16:26:33;17.25;;;7.18;;
26582;SDS011;14230;45.382;10.998;2023-03-13T16:29:01;12.10;;;6.45;;
26582;SDS011;14230;45.382;10.998;2023-03-13T16:31:29;13.98;;;6.20;;
26582;SDS011;14230;45.382;10.998;2023-03-13T16:33:58;10.32;;;6.72;;
26582;SDS011;14230;45.382;10.998;2023-03-13T16:36:27;15.82;;;7.45;;
26582;SDS011;14230;45.382;10.998;2023-03-13T16:38:57;17.63;;;9.10;;
26582;SDS011;14230;45.382;10.998;2023-03-13T16:41:26;14.10;;;7.18;;
26582;SDS011;14230;45.382;10.998;2023-03-13T16:43:54;20.17;;;6.93;;
26582;SDS011;14230;45.382;10.998;2023-03-13T16:46:24;16.15;;;7.75;;
26582;SDS011;14230;45.382;10.998;2023-03-13T16:48:58;9.57;;;5.95;;
26582;SDS011;14230;45.382;10.998;2023-03-13T16:51:26;18.65;;;6.95;;
26582;SDS011;14230;45.382;10.998;2023-03-13T16:53:55;11.90;;;6.90;;